sensor_id;sensor_type;location;lat;lon;timestamp;P1;durP1;ratioP1;P2;durP2;ratioP2
25349;SDS011;13302;48.796;11.978;2023-03-23T00:00:48;2.60;;;2.40;;
25349;SDS011;13302;48.796;11.978;2023-03-23T00:03:34;2.50;;;2.23;;
25349;SDS011;13302;48.796;11.978;2023-03-23T00:06:20;2.50;;;2.40;;
25349;SDS011;13302;48.796;11.978;2023-03-23T00:09:06;2.30;;;2.20;;
25349;SDS011;13302;48.796;11.978;2023-03-23T00:11:52;2.50;;;2.40;;
25349;SDS011;13302;48.796;11.978;2023-03-23T00:14:42;2.90;;;2.33;;
25349;SDS011;13302;48.796;11.978;2023-03-23T00:17:28;4.33;;;2.80;;
25349;SDS011;13302;48.796;11.978;2023-03-23T00:20:14;2.67;;;2.47;;
25349;SDS011;13302;48.796;11.978;2023-03-23T00:23:00;2.33;;;2.23;;
25349;SDS011;13302;48.796;11.978;2023-03-23T00:25:47;3.00;;;2.70;;
25349;SDS011;13302;48.796;11.978;2023-03-23T00:28:34;3.03;;;2.83;;
25349;SDS011;13302;48.796;11.978;2023-03-23T00:31:20;2.40;;;2.30;;
25349;SDS011;13302;48.796;11.978;2023-03-23T00:34:06;2.77;;;2.53;;
25349;SDS011;13302;48.796;11.978;2023-03-23T00:36:52;2.67;;;2.47;;
25349;SDS011;13302;48.796;11.978;2023-03-23T00:39:42;3.00;;;2.80;;
25349;SDS011;13302;48.796;11.978;2023-03-23T00:42:31;2.50;;;2.40;;
25349;SDS011;13302;48.796;11.978;2023-03-23T00:45:22;2.73;;;2.53;;
25349;SDS011;13302;48.796;11.978;2023-03-23T00:48:10;2.50;;;2.40;;
25349;SDS011;13302;48.796;11.978;2023-03-23T00:50:58;2.60;;;2.50;;
25349;SDS011;13302;48.796;11.978;2023-03-23T00:53:44;2.40;;;2.20;;
25349;SDS011;13302;48.796;11.978;2023-03-23T00:56:31;2.60;;;2.50;;
25349;SDS011;13302;48.796;11.978;2023-03-23T00:59:17;2.20;;;2.10;;
25349;SDS011;13302;48.796;11.978;2023-03-23T01:02:03;2.33;;;2.20;;
25349;SDS011;13302;48.796;11.978;2023-03-23T01:04:50;2.00;;;1.90;;
25349;SDS011;13302;48.796;11.978;2023-03-23T01:07:37;2.40;;;2.20;;
25349;SDS011;13302;48.796;11.978;2023-03-23T01:10:24;2.43;;;2.33;;
25349;SDS011;13302;48.796;11.978;2023-03-23T01:13:11;2.60;;;2.40;;
25349;SDS011;13302;48.796;11.978;2023-03-23T01:15:58;2.40;;;2.30;;
25349;SDS011;13302;48.796;11.978;2023-03-23T01:18:44;2.40;;;2.20;;
25349;SDS011;13302;48.796;11.978;2023-03-23T01:21:30;2.20;;;2.10;;
25349;SDS011;13302;48.796;11.978;2023-03-23T01:24:16;2.40;;;2.30;;
25349;SDS011;13302;48.796;11.978;2023-03-23T01:27:02;2.73;;;2.53;;
25349;SDS011;13302;48.796;11.978;2023-03-23T01:29:52;2.30;;;2.20;;
25349;SDS011;13302;48.796;11.978;2023-03-23T01:32:38;2.33;;;2.23;;
25349;SDS011;13302;48.796;11.978;2023-03-23T01:35:25;2.07;;;1.97;;
25349;SDS011;13302;48.796;11.978;2023-03-23T01:38:12;1.90;;;1.80;;
25349;SDS011;13302;48.796;11.978;2023-03-23T01:40:58;1.90;;;1.80;;
25349;SDS011;13302;48.796;11.978;2023-03-23T01:44:05;1.70;;;1.70;;
25349;SDS011;13302;48.796;11.978;2023-03-23T01:47:02;2.73;;;1.63;;
25349;SDS011;13302;48.796;11.978;2023-03-23T01:49:48;2.20;;;2.10;;
25349;SDS011;13302;48.796;11.978;2023-03-23T01:52:36;2.33;;;2.13;;
25349;SDS011;13302;48.796;11.978;2023-03-23T01:55:23;1.93;;;1.83;;
25349;SDS011;13302;48.796;11.978;2023-03-23T01:58:12;1.80;;;1.80;;
25349;SDS011;13302;48.796;11.978;2023-03-23T02:00:58;2.00;;;1.80;;
25349;SDS011;13302;48.796;11.978;2023-03-23T02:03:49;1.73;;;1.73;;
25349;SDS011;13302;48.796;11.978;2023-03-23T02:06:35;2.20;;;2.00;;
25349;SDS011;13302;48.796;11.978;2023-03-23T02:09:30;1.90;;;1.80;;
25349;SDS011;13302;48.796;11.978;2023-03-23T02:12:16;2.00;;;1.90;;
25349;SDS011;13302;48.796;11.978;2023-03-23T02:15:02;1.80;;;1.70;;
25349;SDS011;13302;48.796;11.978;2023-03-23T02:17:57;1.97;;;1.87;;
25349;SDS011;13302;48.796;11.978;2023-03-23T02:20:58;1.97;;;1.87;;
25349;SDS011;13302;48.796;11.978;2023-03-23T02:27:32;2.50;;;2.40;;
25349;SDS011;13302;48.796;11.978;2023-03-23T02:30:39;2.30;;;2.20;;
25349;SDS011;13302;48.796;11.978;2023-03-23T02:33:38;2.23;;;2.13;;
25349;SDS011;13302;48.796;11.978;2023-03-23T02:36:39;1.90;;;1.80;;
25349;SDS011;13302;48.796;11.978;2023-03-23T02:39:40;2.10;;;2.00;;
25349;SDS011;13302;48.796;11.978;2023-03-23T02:42:33;2.97;;;2.10;;
25349;SDS011;13302;48.796;11.978;2023-03-23T02:45:22;1.83;;;1.83;;
25349;SDS011;13302;48.796;11.978;2023-03-23T02:48:12;2.27;;;2.17;;
25349;SDS011;13302;48.796;11.978;2023-03-23T02:51:02;2.27;;;2.17;;
25349;SDS011;13302;48.796;11.978;2023-03-23T02:53:50;2.40;;;2.30;;
25349;SDS011;13302;48.796;11.978;2023-03-23T02:56:38;2.10;;;2.00;;
25349;SDS011;13302;48.796;11.978;2023-03-23T02:59:32;2.47;;;2.23;;
25349;SDS011;13302;48.796;11.978;2023-03-23T03:02:22;2.17;;;2.07;;
25349;SDS011;13302;48.796;11.978;2023-03-23T03:05:18;1.80;;;1.80;;
25349;SDS011;13302;48.796;11.978;2023-03-23T03:11:09;2.40;;;2.30;;
25349;SDS011;13302;48.796;11.978;2023-03-23T03:14:00;1.97;;;1.87;;
25349;SDS011;13302;48.796;11.978;2023-03-23T03:16:56;2.30;;;2.20;;
25349;SDS011;13302;48.796;11.978;2023-03-23T03:19:46;2.23;;;2.03;;
25349;SDS011;13302;48.796;11.978;2023-03-23T03:22:38;2.23;;;2.13;;
25349;SDS011;13302;48.796;11.978;2023-03-23T03:25:30;2.30;;;2.17;;
25349;SDS011;13302;48.796;11.978;2023-03-23T03:28:18;2.53;;;2.43;;
25349;SDS011;13302;48.796;11.978;2023-03-23T03:31:07;2.53;;;2.43;;
25349;SDS011;13302;48.796;11.978;2023-03-23T03:33:54;2.67;;;2.47;;
25349;SDS011;13302;48.796;11.978;2023-03-23T03:36:42;2.60;;;2.40;;
25349;SDS011;13302;48.796;11.978;2023-03-23T03:39:29;2.53;;;2.43;;
25349;SDS011;13302;48.796;11.978;2023-03-23T03:42:16;2.60;;;2.40;;
25349;SDS011;13302;48.796;11.978;2023-03-23T03:45:02;2.60;;;2.50;;
25349;SDS011;13302;48.796;11.978;2023-03-23T03:47:48;2.90;;;2.77;;
25349;SDS011;13302;48.796;11.978;2023-03-23T03:50:35;2.70;;;2.60;;
25349;SDS011;13302;48.796;11.978;2023-03-23T03:53:24;2.60;;;2.50;;
25349;SDS011;13302;48.796;11.978;2023-03-23T03:56:10;2.67;;;2.57;;
25349;SDS011;13302;48.796;11.978;2023-03-23T03:59:03;2.63;;;2.53;;
25349;SDS011;13302;48.796;11.978;2023-03-23T04:02:10;3.20;;;3.00;;
25349;SDS011;13302;48.796;11.978;2023-03-23T04:04:59;2.97;;;2.83;;
25349;SDS011;13302;48.796;11.978;2023-03-23T04:07:49;3.10;;;2.90;;
25349;SDS011;13302;48.796;11.978;2023-03-23T04:10:39;4.80;;;3.00;;
25349;SDS011;13302;48.796;11.978;2023-03-23T04:13:27;2.93;;;2.83;;
25349;SDS011;13302;48.796;11.978;2023-03-23T04:16:26;3.10;;;2.90;;
25349;SDS011;13302;48.796;11.978;2023-03-23T04:19:15;3.03;;;2.83;;
25349;SDS011;13302;48.796;11.978;2023-03-23T04:22:02;3.53;;;3.33;;
25349;SDS011;13302;48.796;11.978;2023-03-23T04:24:52;3.07;;;2.87;;
25349;SDS011;13302;48.796;11.978;2023-03-23T04:27:39;3.00;;;2.80;;
25349;SDS011;13302;48.796;11.978;2023-03-23T04:30:30;3.13;;;2.93;;
25349;SDS011;13302;48.796;11.978;2023-03-23T04:33:23;2.73;;;2.63;;
25349;SDS011;13302;48.796;11.978;2023-03-23T04:36:13;3.03;;;2.73;;
25349;SDS011;13302;48.796;11.978;2023-03-23T04:39:10;3.27;;;3.07;;
25349;SDS011;13302;48.796;11.978;2023-03-23T04:41:57;3.67;;;3.20;;
25349;SDS011;13302;48.796;11.978;2023-03-23T04:45:06;3.30;;;3.10;;
25349;SDS011;13302;48.796;11.978;2023-03-23T04:47:56;4.17;;;3.20;;
25349;SDS011;13302;48.796;11.978;2023-03-23T04:50:56;3.43;;;3.23;;
25349;SDS011;13302;48.796;11.978;2023-03-23T04:53:48;3.50;;;3.17;;
25349;SDS011;13302;48.796;11.978;2023-03-23T04:56:34;3.30;;;3.10;;
25349;SDS011;13302;48.796;11.978;2023-03-23T04:59:27;3.20;;;3.00;;
25349;SDS011;13302;48.796;11.978;2023-03-23T05:02:22;3.37;;;3.17;;
25349;SDS011;13302;48.796;11.978;2023-03-23T05:05:09;3.27;;;3.07;;
25349;SDS011;13302;48.796;11.978;2023-03-23T05:07:57;3.23;;;3.03;;
25349;SDS011;13302;48.796;11.978;2023-03-23T05:10:50;3.27;;;3.07;;
25349;SDS011;13302;48.796;11.978;2023-03-23T05:13:37;4.00;;;3.70;;
25349;SDS011;13302;48.796;11.978;2023-03-23T05:16:26;3.93;;;3.60;;
25349;SDS011;13302;48.796;11.978;2023-03-23T05:19:14;3.30;;;3.10;;
25349;SDS011;13302;48.796;11.978;2023-03-23T05:22:00;3.93;;;3.63;;
25349;SDS011;13302;48.796;11.978;2023-03-23T05:24:54;3.43;;;3.23;;
25349;SDS011;13302;48.796;11.978;2023-03-23T05:27:40;3.73;;;3.43;;
25349;SDS011;13302;48.796;11.978;2023-03-23T05:30:47;3.50;;;3.30;;
25349;SDS011;13302;48.796;11.978;2023-03-23T05:33:35;4.13;;;3.93;;
25349;SDS011;13302;48.796;11.978;2023-03-23T05:36:45;3.60;;;3.30;;
25349;SDS011;13302;48.796;11.978;2023-03-23T05:40:00;3.83;;;3.60;;
25349;SDS011;13302;48.796;11.978;2023-03-23T05:43:08;4.23;;;3.93;;
25349;SDS011;13302;48.796;11.978;2023-03-23T05:46:04;3.73;;;3.50;;
25349;SDS011;13302;48.796;11.978;2023-03-23T05:48:51;4.33;;;3.97;;
25349;SDS011;13302;48.796;11.978;2023-03-23T05:51:41;3.90;;;3.60;;
25349;SDS011;13302;48.796;11.978;2023-03-23T05:54:27;3.47;;;3.23;;
25349;SDS011;13302;48.796;11.978;2023-03-23T05:57:13;3.67;;;3.37;;
25349;SDS011;13302;48.796;11.978;2023-03-23T06:00:10;3.43;;;3.23;;
25349;SDS011;13302;48.796;11.978;2023-03-23T06:02:58;4.30;;;3.70;;
25349;SDS011;13302;48.796;11.978;2023-03-23T06:05:58;3.77;;;3.47;;
25349;SDS011;13302;48.796;11.978;2023-03-23T06:08:52;4.37;;;3.97;;
25349;SDS011;13302;48.796;11.978;2023-03-23T06:11:48;3.40;;;3.13;;
25349;SDS011;13302;48.796;11.978;2023-03-23T06:14:47;3.83;;;3.53;;
25349;SDS011;13302;48.796;11.978;2023-03-23T06:17:37;4.00;;;3.60;;
25349;SDS011;13302;48.796;11.978;2023-03-23T06:20:24;3.90;;;3.40;;
25349;SDS011;13302;48.796;11.978;2023-03-23T06:23:11;3.47;;;3.10;;
25349;SDS011;13302;48.796;11.978;2023-03-23T06:26:00;3.80;;;3.50;;
25349;SDS011;13302;48.796;11.978;2023-03-23T06:28:49;3.30;;;3.10;;
25349;SDS011;13302;48.796;11.978;2023-03-23T06:31:35;3.57;;;3.27;;
25349;SDS011;13302;48.796;11.978;2023-03-23T06:34:24;3.50;;;3.30;;
25349;SDS011;13302;48.796;11.978;2023-03-23T06:37:33;3.57;;;3.27;;
25349;SDS011;13302;48.796;11.978;2023-03-23T06:40:45;3.80;;;3.50;;
25349;SDS011;13302;48.796;11.978;2023-03-23T06:43:33;3.47;;;3.17;;
25349;SDS011;13302;48.796;11.978;2023-03-23T06:46:31;2.77;;;2.63;;
25349;SDS011;13302;48.796;11.978;2023-03-23T06:49:46;3.13;;;2.93;;
25349;SDS011;13302;48.796;11.978;2023-03-23T06:52:47;3.10;;;2.40;;
25349;SDS011;13302;48.796;11.978;2023-03-23T06:55:33;2.53;;;2.43;;
25349;SDS011;13302;48.796;11.978;2023-03-23T06:58:23;3.07;;;2.87;;
25349;SDS011;13302;48.796;11.978;2023-03-23T07:01:10;2.80;;;2.70;;
25349;SDS011;13302;48.796;11.978;2023-03-23T07:04:00;5.77;;;3.00;;
25349;SDS011;13302;48.796;11.978;2023-03-23T07:06:58;2.67;;;2.57;;
25349;SDS011;13302;48.796;11.978;2023-03-23T07:09:45;2.80;;;2.70;;
25349;SDS011;13302;48.796;11.978;2023-03-23T07:12:32;2.47;;;2.33;;
25349;SDS011;13302;48.796;11.978;2023-03-23T07:15:19;2.80;;;2.60;;
25349;SDS011;13302;48.796;11.978;2023-03-23T07:18:08;3.57;;;2.87;;
25349;SDS011;13302;48.796;11.978;2023-03-23T07:21:06;2.70;;;2.60;;
25349;SDS011;13302;48.796;11.978;2023-03-23T07:23:53;2.67;;;2.57;;
25349;SDS011;13302;48.796;11.978;2023-03-23T07:26:56;3.37;;;3.13;;
25349;SDS011;13302;48.796;11.978;2023-03-23T07:29:44;3.33;;;2.80;;
25349;SDS011;13302;48.796;11.978;2023-03-23T07:32:37;3.30;;;3.10;;
25349;SDS011;13302;48.796;11.978;2023-03-23T07:35:23;3.30;;;3.10;;
25349;SDS011;13302;48.796;11.978;2023-03-23T07:38:18;3.93;;;3.20;;
25349;SDS011;13302;48.796;11.978;2023-03-23T07:41:07;3.00;;;2.80;;
25349;SDS011;13302;48.796;11.978;2023-03-23T07:43:54;3.37;;;3.03;;
25349;SDS011;13302;48.796;11.978;2023-03-23T07:46:49;3.10;;;2.90;;
25349;SDS011;13302;48.796;11.978;2023-03-23T07:49:39;3.10;;;2.90;;
25349;SDS011;13302;48.796;11.978;2023-03-23T07:52:36;3.63;;;3.30;;
25349;SDS011;13302;48.796;11.978;2023-03-23T07:55:23;3.00;;;2.80;;
25349;SDS011;13302;48.796;11.978;2023-03-23T07:58:38;3.63;;;3.40;;
25349;SDS011;13302;48.796;11.978;2023-03-23T08:01:24;3.50;;;3.20;;
25349;SDS011;13302;48.796;11.978;2023-03-23T08:04:29;3.43;;;3.10;;
25349;SDS011;13302;48.796;11.978;2023-03-23T08:07:31;3.07;;;2.77;;
25349;SDS011;13302;48.796;11.978;2023-03-23T08:10:30;4.10;;;3.30;;
25349;SDS011;13302;48.796;11.978;2023-03-23T08:13:26;2.83;;;2.63;;
25349;SDS011;13302;48.796;11.978;2023-03-23T08:16:32;3.00;;;2.80;;
25349;SDS011;13302;48.796;11.978;2023-03-23T08:19:29;2.83;;;2.67;;
25349;SDS011;13302;48.796;11.978;2023-03-23T08:22:34;3.03;;;2.73;;
25349;SDS011;13302;48.796;11.978;2023-03-23T08:25:42;3.20;;;3.00;;
25349;SDS011;13302;48.796;11.978;2023-03-23T08:28:41;2.93;;;2.73;;
25349;SDS011;13302;48.796;11.978;2023-03-23T08:31:47;2.93;;;2.73;;
25349;SDS011;13302;48.796;11.978;2023-03-23T08:35:01;2.40;;;2.30;;
25349;SDS011;13302;48.796;11.978;2023-03-23T08:38:00;2.67;;;2.57;;
25349;SDS011;13302;48.796;11.978;2023-03-23T08:41:13;2.73;;;2.47;;
25349;SDS011;13302;48.796;11.978;2023-03-23T08:44:13;3.17;;;2.90;;
25349;SDS011;13302;48.796;11.978;2023-03-23T08:47:15;3.37;;;2.77;;
25349;SDS011;13302;48.796;11.978;2023-03-23T08:50:15;3.03;;;2.70;;
25349;SDS011;13302;48.796;11.978;2023-03-23T08:53:13;2.50;;;2.30;;
25349;SDS011;13302;48.796;11.978;2023-03-23T08:56:06;2.90;;;2.63;;
25349;SDS011;13302;48.796;11.978;2023-03-23T08:59:08;2.63;;;2.43;;
25349;SDS011;13302;48.796;11.978;2023-03-23T09:02:30;2.57;;;2.37;;
25349;SDS011;13302;48.796;11.978;2023-03-23T09:05:33;2.37;;;2.27;;
25349;SDS011;13302;48.796;11.978;2023-03-23T09:08:38;2.33;;;2.23;;
25349;SDS011;13302;48.796;11.978;2023-03-23T09:11:25;2.17;;;2.03;;
25349;SDS011;13302;48.796;11.978;2023-03-23T09:14:11;2.17;;;2.07;;
25349;SDS011;13302;48.796;11.978;2023-03-23T09:16:58;2.50;;;2.10;;
25349;SDS011;13302;48.796;11.978;2023-03-23T09:19:43;2.03;;;1.93;;
25349;SDS011;13302;48.796;11.978;2023-03-23T09:22:29;2.00;;;1.90;;
25349;SDS011;13302;48.796;11.978;2023-03-23T09:25:16;2.63;;;2.20;;
25349;SDS011;13302;48.796;11.978;2023-03-23T09:28:07;1.73;;;1.63;;
25349;SDS011;13302;48.796;11.978;2023-03-23T09:30:56;2.00;;;1.90;;
25349;SDS011;13302;48.796;11.978;2023-03-23T09:33:43;1.67;;;1.60;;
25349;SDS011;13302;48.796;11.978;2023-03-23T09:36:30;1.90;;;1.80;;
25349;SDS011;13302;48.796;11.978;2023-03-23T09:39:17;1.93;;;1.83;;
25349;SDS011;13302;48.796;11.978;2023-03-23T09:45:05;3.07;;;1.80;;
25349;SDS011;13302;48.796;11.978;2023-03-23T09:50:50;2.00;;;1.90;;
25349;SDS011;13302;48.796;11.978;2023-03-23T09:53:43;1.77;;;1.70;;
25349;SDS011;13302;48.796;11.978;2023-03-23T09:56:34;2.43;;;1.60;;
25349;SDS011;13302;48.796;11.978;2023-03-23T10:02:30;3.30;;;1.70;;
25349;SDS011;13302;48.796;11.978;2023-03-23T10:08:20;2.60;;;1.70;;
25349;SDS011;13302;48.796;11.978;2023-03-23T10:17:24;1.40;;;1.40;;
25349;SDS011;13302;48.796;11.978;2023-03-23T10:20:25;2.00;;;1.90;;
25349;SDS011;13302;48.796;11.978;2023-03-23T10:26:09;1.50;;;1.37;;
25349;SDS011;13302;48.796;11.978;2023-03-23T10:32:16;1.63;;;1.53;;
25349;SDS011;13302;48.796;11.978;2023-03-23T10:35:09;1.60;;;1.60;;
25349;SDS011;13302;48.796;11.978;2023-03-23T10:38:10;1.60;;;1.60;;
25349;SDS011;13302;48.796;11.978;2023-03-23T10:41:06;1.70;;;1.60;;
25349;SDS011;13302;48.796;11.978;2023-03-23T10:44:16;1.63;;;1.63;;
25349;SDS011;13302;48.796;11.978;2023-03-23T10:47:07;1.80;;;1.70;;
25349;SDS011;13302;48.796;11.978;2023-03-23T10:50:00;1.80;;;1.70;;
25349;SDS011;13302;48.796;11.978;2023-03-23T10:52:51;2.10;;;1.83;;
25349;SDS011;13302;48.796;11.978;2023-03-23T10:55:39;2.23;;;1.77;;
25349;SDS011;13302;48.796;11.978;2023-03-23T10:58:28;1.83;;;1.73;;
25349;SDS011;13302;48.796;11.978;2023-03-23T11:01:20;1.60;;;1.60;;
25349;SDS011;13302;48.796;11.978;2023-03-23T11:04:16;1.70;;;1.70;;
25349;SDS011;13302;48.796;11.978;2023-03-23T11:07:19;1.67;;;1.57;;
25349;SDS011;13302;48.796;11.978;2023-03-23T11:10:21;1.90;;;1.77;;
25349;SDS011;13302;48.796;11.978;2023-03-23T11:13:13;1.23;;;1.23;;
25349;SDS011;13302;48.796;11.978;2023-03-23T11:16:00;1.40;;;1.30;;
25349;SDS011;13302;48.796;11.978;2023-03-23T11:18:46;1.60;;;1.50;;
25349;SDS011;13302;48.796;11.978;2023-03-23T11:21:32;1.70;;;1.57;;
25349;SDS011;13302;48.796;11.978;2023-03-23T11:24:20;1.20;;;1.20;;
25349;SDS011;13302;48.796;11.978;2023-03-23T11:27:08;1.27;;;1.10;;
25349;SDS011;13302;48.796;11.978;2023-03-23T11:30:00;1.60;;;1.50;;
25349;SDS011;13302;48.796;11.978;2023-03-23T11:32:54;1.60;;;1.40;;
25349;SDS011;13302;48.796;11.978;2023-03-23T11:35:45;1.60;;;1.50;;
25349;SDS011;13302;48.796;11.978;2023-03-23T11:38:32;1.40;;;1.30;;
25349;SDS011;13302;48.796;11.978;2023-03-23T11:41:19;1.30;;;1.30;;
25349;SDS011;13302;48.796;11.978;2023-03-23T11:44:09;1.27;;;1.20;;
25349;SDS011;13302;48.796;11.978;2023-03-23T11:50:08;1.20;;;1.20;;
25349;SDS011;13302;48.796;11.978;2023-03-23T11:59:15;4.37;;;1.40;;
25349;SDS011;13302;48.796;11.978;2023-03-23T12:11:15;1.00;;;1.00;;
25349;SDS011;13302;48.796;11.978;2023-03-23T12:20:39;1.20;;;1.20;;
25349;SDS011;13302;48.796;11.978;2023-03-23T12:23:33;1.40;;;1.30;;
25349;SDS011;13302;48.796;11.978;2023-03-23T12:26:31;1.00;;;1.00;;
25349;SDS011;13302;48.796;11.978;2023-03-23T12:32:24;1.13;;;1.10;;
25349;SDS011;13302;48.796;11.978;2023-03-23T12:35:20;2.60;;;0.97;;
25349;SDS011;13302;48.796;11.978;2023-03-23T12:41:18;3.10;;;1.10;;
25349;SDS011;13302;48.796;11.978;2023-03-23T12:44:09;1.13;;;1.03;;
25349;SDS011;13302;48.796;11.978;2023-03-23T12:50:30;2.03;;;1.30;;
25349;SDS011;13302;48.796;11.978;2023-03-23T12:53:26;1.20;;;1.20;;
25349;SDS011;13302;48.796;11.978;2023-03-23T12:56:21;1.20;;;1.20;;
25349;SDS011;13302;48.796;11.978;2023-03-23T12:59:19;1.20;;;1.20;;
25349;SDS011;13302;48.796;11.978;2023-03-23T13:02:16;1.50;;;1.40;;
25349;SDS011;13302;48.796;11.978;2023-03-23T13:05:25;1.10;;;1.10;;
25349;SDS011;13302;48.796;11.978;2023-03-23T13:08:19;1.53;;;1.30;;
25349;SDS011;13302;48.796;11.978;2023-03-23T13:11:15;2.00;;;1.60;;
25349;SDS011;13302;48.796;11.978;2023-03-23T13:14:11;1.57;;;1.50;;
25349;SDS011;13302;48.796;11.978;2023-03-23T13:20:16;1.60;;;1.50;;
25349;SDS011;13302;48.796;11.978;2023-03-23T13:23:15;1.13;;;1.13;;
25349;SDS011;13302;48.796;11.978;2023-03-23T13:26:03;1.20;;;1.20;;
25349;SDS011;13302;48.796;11.978;2023-03-23T13:31:47;1.10;;;1.10;;
25349;SDS011;13302;48.796;11.978;2023-03-23T13:34:35;0.97;;;0.97;;
25349;SDS011;13302;48.796;11.978;2023-03-23T13:37:23;0.90;;;0.90;;
25349;SDS011;13302;48.796;11.978;2023-03-23T13:42:58;1.27;;;1.10;;
25349;SDS011;13302;48.796;11.978;2023-03-23T13:45:46;1.03;;;1.03;;
25349;SDS011;13302;48.796;11.978;2023-03-23T13:48:43;1.20;;;1.10;;
25349;SDS011;13302;48.796;11.978;2023-03-23T14:06:12;1.00;;;1.00;;
25349;SDS011;13302;48.796;11.978;2023-03-23T14:09:24;1.30;;;1.30;;
25349;SDS011;13302;48.796;11.978;2023-03-23T14:12:15;1.30;;;1.20;;
25349;SDS011;13302;48.796;11.978;2023-03-23T14:15:11;1.50;;;1.20;;
25349;SDS011;13302;48.796;11.978;2023-03-23T14:18:01;1.17;;;1.17;;
25349;SDS011;13302;48.796;11.978;2023-03-23T14:20:49;1.20;;;1.20;;
25349;SDS011;13302;48.796;11.978;2023-03-23T14:23:35;1.00;;;1.00;;
25349;SDS011;13302;48.796;11.978;2023-03-23T14:26:21;1.30;;;1.10;;
25349;SDS011;13302;48.796;11.978;2023-03-23T14:29:09;1.20;;;1.10;;
25349;SDS011;13302;48.796;11.978;2023-03-23T14:31:57;1.20;;;1.10;;
25349;SDS011;13302;48.796;11.978;2023-03-23T14:34:46;1.00;;;1.00;;
25349;SDS011;13302;48.796;11.978;2023-03-23T14:37:33;1.50;;;1.40;;
25349;SDS011;13302;48.796;11.978;2023-03-23T14:40:21;3.07;;;1.10;;
25349;SDS011;13302;48.796;11.978;2023-03-23T14:43:08;1.10;;;1.10;;
25349;SDS011;13302;48.796;11.978;2023-03-23T14:45:59;1.33;;;1.23;;
25349;SDS011;13302;48.796;11.978;2023-03-23T14:48:47;1.20;;;1.20;;
25349;SDS011;13302;48.796;11.978;2023-03-23T14:51:33;1.10;;;1.10;;
25349;SDS011;13302;48.796;11.978;2023-03-23T14:54:23;1.20;;;1.20;;
25349;SDS011;13302;48.796;11.978;2023-03-23T14:57:15;1.70;;;1.10;;
25349;SDS011;13302;48.796;11.978;2023-03-23T15:00:12;1.10;;;1.10;;
25349;SDS011;13302;48.796;11.978;2023-03-23T15:03:01;1.30;;;1.30;;
25349;SDS011;13302;48.796;11.978;2023-03-23T15:05:54;1.33;;;1.23;;
25349;SDS011;13302;48.796;11.978;2023-03-23T15:08:44;1.20;;;1.10;;
25349;SDS011;13302;48.796;11.978;2023-03-23T15:11:33;1.40;;;1.40;;
25349;SDS011;13302;48.796;11.978;2023-03-23T15:14:22;1.40;;;1.27;;
25349;SDS011;13302;48.796;11.978;2023-03-23T15:17:19;1.63;;;1.27;;
25349;SDS011;13302;48.796;11.978;2023-03-23T15:20:09;3.70;;;1.33;;
25349;SDS011;13302;48.796;11.978;2023-03-23T15:23:05;1.20;;;1.20;;
25349;SDS011;13302;48.796;11.978;2023-03-23T15:25:53;1.43;;;1.27;;
25349;SDS011;13302;48.796;11.978;2023-03-23T15:28:41;1.70;;;1.60;;
25349;SDS011;13302;48.796;11.978;2023-03-23T15:31:27;1.63;;;1.53;;
25349;SDS011;13302;48.796;11.978;2023-03-23T15:34:21;1.40;;;1.40;;
25349;SDS011;13302;48.796;11.978;2023-03-23T15:37:31;1.30;;;1.20;;
25349;SDS011;13302;48.796;11.978;2023-03-23T15:40:19;1.30;;;1.20;;
25349;SDS011;13302;48.796;11.978;2023-03-23T15:43:20;1.80;;;1.70;;
25349;SDS011;13302;48.796;11.978;2023-03-23T15:51:44;1.17;;;1.17;;
25349;SDS011;13302;48.796;11.978;2023-03-23T15:54:30;1.30;;;1.20;;
25349;SDS011;13302;48.796;11.978;2023-03-23T15:57:17;2.27;;;1.60;;
25349;SDS011;13302;48.796;11.978;2023-03-23T16:00:03;1.40;;;1.40;;
25349;SDS011;13302;48.796;11.978;2023-03-23T16:02:58;1.30;;;1.20;;
25349;SDS011;13302;48.796;11.978;2023-03-23T16:05:48;1.50;;;1.40;;
25349;SDS011;13302;48.796;11.978;2023-03-23T16:08:35;0.97;;;0.97;;
25349;SDS011;13302;48.796;11.978;2023-03-23T16:11:27;1.27;;;1.17;;
25349;SDS011;13302;48.796;11.978;2023-03-23T16:14:16;1.30;;;1.30;;
25349;SDS011;13302;48.796;11.978;2023-03-23T16:17:03;1.30;;;1.20;;
25349;SDS011;13302;48.796;11.978;2023-03-23T16:19:51;1.50;;;1.40;;
25349;SDS011;13302;48.796;11.978;2023-03-23T16:22:38;1.63;;;1.10;;
25349;SDS011;13302;48.796;11.978;2023-03-23T16:25:26;1.30;;;1.30;;
25349;SDS011;13302;48.796;11.978;2023-03-23T16:28:13;1.10;;;1.10;;
25349;SDS011;13302;48.796;11.978;2023-03-23T16:31:01;1.30;;;1.30;;
25349;SDS011;13302;48.796;11.978;2023-03-23T16:33:48;1.17;;;1.17;;
25349;SDS011;13302;48.796;11.978;2023-03-23T16:36:35;1.20;;;1.20;;
25349;SDS011;13302;48.796;11.978;2023-03-23T16:39:22;1.17;;;1.10;;
25349;SDS011;13302;48.796;11.978;2023-03-23T16:42:09;1.17;;;1.17;;
25349;SDS011;13302;48.796;11.978;2023-03-23T16:44:56;1.30;;;1.20;;
25349;SDS011;13302;48.796;11.978;2023-03-23T16:47:43;1.20;;;1.20;;
25349;SDS011;13302;48.796;11.978;2023-03-23T16:50:31;1.97;;;1.17;;
25349;SDS011;13302;48.796;11.978;2023-03-23T16:53:18;1.30;;;1.00;;
25349;SDS011;13302;48.796;11.978;2023-03-23T16:56:06;1.20;;;1.20;;
25349;SDS011;13302;48.796;11.978;2023-03-23T16:58:53;1.57;;;1.47;;
25349;SDS011;13302;48.796;11.978;2023-03-23T17:01:40;1.73;;;1.63;;
25349;SDS011;13302;48.796;11.978;2023-03-23T17:04:29;1.70;;;1.70;;
25349;SDS011;13302;48.796;11.978;2023-03-23T17:07:17;1.40;;;1.40;;
25349;SDS011;13302;48.796;11.978;2023-03-23T17:10:04;2.00;;;1.90;;
25349;SDS011;13302;48.796;11.978;2023-03-23T17:12:53;2.07;;;1.97;;
25349;SDS011;13302;48.796;11.978;2023-03-23T17:15:41;2.00;;;1.90;;
25349;SDS011;13302;48.796;11.978;2023-03-23T17:18:32;1.50;;;1.40;;
25349;SDS011;13302;48.796;11.978;2023-03-23T17:21:19;2.10;;;1.60;;
25349;SDS011;13302;48.796;11.978;2023-03-23T17:24:11;2.17;;;2.00;;
25349;SDS011;13302;48.796;11.978;2023-03-23T17:26:58;2.37;;;2.17;;
25349;SDS011;13302;48.796;11.978;2023-03-23T17:29:45;2.60;;;2.40;;
25349;SDS011;13302;48.796;11.978;2023-03-23T17:32:32;4.70;;;2.30;;
25349;SDS011;13302;48.796;11.978;2023-03-23T17:35:20;2.70;;;2.50;;
25349;SDS011;13302;48.796;11.978;2023-03-23T17:38:07;2.87;;;2.57;;
25349;SDS011;13302;48.796;11.978;2023-03-23T17:40:55;3.97;;;2.90;;
25349;SDS011;13302;48.796;11.978;2023-03-23T17:43:46;2.47;;;2.27;;
25349;SDS011;13302;48.796;11.978;2023-03-23T17:46:33;3.10;;;2.60;;
25349;SDS011;13302;48.796;11.978;2023-03-23T17:49:21;2.43;;;2.23;;
25349;SDS011;13302;48.796;11.978;2023-03-23T17:52:08;2.10;;;2.00;;
25349;SDS011;13302;48.796;11.978;2023-03-23T17:54:55;2.37;;;2.20;;
25349;SDS011;13302;48.796;11.978;2023-03-23T17:57:42;2.53;;;2.43;;
25349;SDS011;13302;48.796;11.978;2023-03-23T18:00:31;2.83;;;2.60;;
25349;SDS011;13302;48.796;11.978;2023-03-23T18:03:18;3.07;;;2.67;;
25349;SDS011;13302;48.796;11.978;2023-03-23T18:06:06;2.60;;;2.40;;
25349;SDS011;13302;48.796;11.978;2023-03-23T18:08:54;2.20;;;2.00;;
25349;SDS011;13302;48.796;11.978;2023-03-23T18:11:41;2.80;;;2.60;;
25349;SDS011;13302;48.796;11.978;2023-03-23T18:14:28;2.47;;;2.37;;
25349;SDS011;13302;48.796;11.978;2023-03-23T18:17:15;2.50;;;2.30;;
25349;SDS011;13302;48.796;11.978;2023-03-23T18:20:03;1.50;;;1.50;;
25349;SDS011;13302;48.796;11.978;2023-03-23T18:22:50;2.10;;;2.00;;
25349;SDS011;13302;48.796;11.978;2023-03-23T18:25:37;2.10;;;1.87;;
25349;SDS011;13302;48.796;11.978;2023-03-23T18:28:24;2.57;;;1.77;;
25349;SDS011;13302;48.796;11.978;2023-03-23T18:31:13;1.93;;;1.83;;